Watrous, Canada
Current Conditions -  °F | °C
As of 7:00 AM on Tuesday 21 Oct 2014 (Local Time) from CYXE Reporting Station
Scattered Clouds Scattered Clouds  
Wind Chill: 38°   Ceiling: Unl
Heat Index: 43°   Visibility: 15mi
Dew Point: 39°   Wind: 8mph
Humidity: 87%   Direction: 180°S
Pressure: 29.61"   Gusts: NA
Location:  51.67°N, 105.45°W
Report Text: CYXE 211300Z 18007KT 15SM SCT210 06/04 A2961 RMK CI3 SLP039
Loading
Personal Weather Stations






























Interactive Weather Map
Tropical Storm Tracking
New forecast layout! Learn more

10-Day Weather Forecast

Advertisements
Track Severe Weather on mobile